createdAt,value
2023-04-16T00:04:41.330Z,0.93
2023-04-16T00:09:44.306Z,1.02
2023-04-16T00:14:47.402Z,1.03
2023-04-16T00:19:50.303Z,0.92
2023-04-16T00:24:53.311Z,0.99
2023-04-16T00:29:56.329Z,1.13
2023-04-16T00:35:00.809Z,0.98
2023-04-16T00:40:03.930Z,0.95
2023-04-16T00:45:07.546Z,0.87
2023-04-16T00:50:11.847Z,0.88
2023-04-16T00:55:16.054Z,0.96
2023-04-16T01:00:19.098Z,1.17
2023-04-16T01:05:22.078Z,0.99
2023-04-16T01:10:24.999Z,0.96
2023-04-16T01:15:28.006Z,1.03
2023-04-16T01:20:36.314Z,0.95
2023-04-16T01:25:39.808Z,0.99
2023-04-16T01:30:42.921Z,0.98
2023-04-16T01:35:55.352Z,1.12
2023-04-16T01:40:59.819Z,1.08
2023-04-16T01:46:16.134Z,1.07
2023-04-16T01:51:19.097Z,1.19
2023-04-16T01:56:22.153Z,1.06
2023-04-16T02:01:25.377Z,1.15
2023-04-16T02:06:28.445Z,1.14
2023-04-16T02:11:31.405Z,1.04
2023-04-16T02:16:34.471Z,1.04
2023-04-16T02:21:58.076Z,1.19
2023-04-16T02:27:01.246Z,1.15
2023-04-16T02:32:04.931Z,1.33
2023-04-16T02:37:09.239Z,1.63
2023-04-16T02:42:12.245Z,1.90
2023-04-16T02:47:15.509Z,1.71
2023-04-16T02:52:18.540Z,1.82
2023-04-16T02:57:21.703Z,1.95
2023-04-16T03:02:24.764Z,2.89
2023-04-16T03:07:27.782Z,2.95
2023-04-16T03:12:30.933Z,2.97
2023-04-16T03:17:34.086Z,2.81
2023-04-16T03:22:38.810Z,3.17
2023-04-16T03:27:41.813Z,3.34
2023-04-16T03:32:46.644Z,3.28
2023-04-16T03:37:50.855Z,4.00
2023-04-16T03:42:54.201Z,4.32
2023-04-16T03:47:57.914Z,4.67
2023-04-16T03:53:02.305Z,5.68
2023-04-16T03:58:05.638Z,6.91
2023-04-16T04:03:10.295Z,8.12
2023-04-16T04:08:14.381Z,8.78
2023-04-16T04:13:18.139Z,9.66
2023-04-16T04:18:21.269Z,10.44
2023-04-16T04:23:24.588Z,10.83
2023-04-16T04:28:27.769Z,11.49
2023-04-16T04:33:31.025Z,11.96
2023-04-16T04:38:34.427Z,12.09
2023-04-16T04:43:37.756Z,12.45
2023-04-16T04:48:42.199Z,12.66
2023-04-16T04:53:45.247Z,12.74
2023-04-16T04:58:50.373Z,13.16
2023-04-16T05:03:55.491Z,14.16
2023-04-16T05:08:58.539Z,14.44
2023-04-16T05:14:01.524Z,13.37
2023-04-16T05:19:07.279Z,13.42
2023-04-16T05:24:10.194Z,13.63
2023-04-16T05:29:13.200Z,14.73
2023-04-16T05:34:16.276Z,14.56
2023-04-16T05:39:20.110Z,14.37
2023-04-16T05:44:23.095Z,15.17
2023-04-16T05:49:26.074Z,14.97
2023-04-16T05:54:29.038Z,14.75
2023-04-16T05:59:31.978Z,15.15
2023-04-16T06:04:36.174Z,15.01
2023-04-16T06:09:39.122Z,14.74
2023-04-16T06:14:42.045Z,15.07
2023-04-16T06:19:45.172Z,14.76
2023-04-16T06:24:48.146Z,14.73
2023-04-16T06:29:51.181Z,14.38
2023-04-16T06:34:54.224Z,14.83
2023-04-16T06:39:57.190Z,15.05
2023-04-16T06:45:00.187Z,15.35
2023-04-16T06:50:03.189Z,15.60
2023-04-16T06:55:08.640Z,15.60
2023-04-16T07:00:12.429Z,15.08
2023-04-16T07:05:15.375Z,15.77
2023-04-16T07:10:18.652Z,14.83
2023-04-16T07:15:22.554Z,14.89
2023-04-16T07:20:25.585Z,14.75
2023-04-16T07:25:28.563Z,14.58
2023-04-16T07:30:34.608Z,14.14
2023-04-16T07:35:37.660Z,13.74
2023-04-16T07:40:40.702Z,13.44
2023-04-16T07:45:43.762Z,13.23
2023-04-16T07:50:46.832Z,13.05
2023-04-16T07:55:49.869Z,13.05
2023-04-16T08:00:53.748Z,13.00
2023-04-16T08:05:56.801Z,12.89
2023-04-16T08:11:00.436Z,12.66
2023-04-16T08:16:03.407Z,12.38
2023-04-16T08:21:06.632Z,12.99
2023-04-16T08:26:09.559Z,13.05
2023-04-16T08:31:12.545Z,13.01
2023-04-16T08:36:15.679Z,12.88
2023-04-16T08:41:22.804Z,12.60
2023-04-16T08:46:27.007Z,12.67
2023-04-16T08:51:34.343Z,12.52
2023-04-16T08:56:39.480Z,13.03
2023-04-16T09:01:44.130Z,13.05
2023-04-16T09:06:48.913Z,12.80
2023-04-16T09:11:53.303Z,12.18
2023-04-16T09:16:56.494Z,12.61
2023-04-16T09:21:59.734Z,12.33
2023-04-16T09:27:03.215Z,12.50
2023-04-16T09:32:11.050Z,12.26
2023-04-16T09:37:23.552Z,11.98
2023-04-16T09:42:29.921Z,12.36
2023-04-16T09:47:41.602Z,12.36
2023-04-16T09:52:48.227Z,12.21
2023-04-16T09:57:59.691Z,12.09
2023-04-16T10:03:07.556Z,12.28
2023-04-16T10:08:14.747Z,12.18
2023-04-16T10:13:19.491Z,11.82
2023-04-16T10:18:23.092Z,12.09
2023-04-16T10:23:27.103Z,12.28
2023-04-16T10:28:30.987Z,12.00
2023-04-16T10:33:36.762Z,12.16
2023-04-16T10:39:00.757Z,12.21
2023-04-16T10:44:11.863Z,12.10
2023-04-16T10:49:19.880Z,12.03
2023-04-16T10:54:27.948Z,11.87
2023-04-16T10:59:32.856Z,12.01
2023-04-16T11:04:38.102Z,11.92
2023-04-16T11:10:02.560Z,11.88
2023-04-16T11:15:13.279Z,11.91
2023-04-16T11:20:23.952Z,11.78
2023-04-16T11:25:31.916Z,11.99
2023-04-16T11:30:36.651Z,11.87
2023-04-16T11:35:40.741Z,11.93
2023-04-16T11:40:43.662Z,11.88
2023-04-16T11:46:20.146Z,12.07
2023-04-16T11:51:27.396Z,11.92
2023-04-16T11:56:33.158Z,11.67
2023-04-16T12:01:37.481Z,11.88
2023-04-16T12:06:40.493Z,11.91
2023-04-16T12:11:43.974Z,11.93
2023-04-16T12:16:47.176Z,11.84
2023-04-16T12:21:51.443Z,11.87
2023-04-16T12:27:03.423Z,12.01
2023-04-16T12:32:21.943Z,11.91
2023-04-16T12:37:25.331Z,12.01
2023-04-16T12:42:28.312Z,11.82
2023-04-16T12:47:32.431Z,11.89
2023-04-16T12:52:35.864Z,11.93
2023-04-16T12:57:38.793Z,11.99
2023-04-16T13:02:41.903Z,11.98
2023-04-16T13:07:45.383Z,11.95
2023-04-16T13:12:49.271Z,11.85
2023-04-16T13:17:52.301Z,12.01
2023-04-16T13:22:55.554Z,11.95
2023-04-16T13:27:58.475Z,11.79
2023-04-16T13:33:01.509Z,11.82
2023-04-16T13:38:05.389Z,11.78
2023-04-16T13:43:08.429Z,11.79
2023-04-16T13:48:11.580Z,11.78
2023-04-16T13:53:14.608Z,11.69
2023-04-16T13:58:17.580Z,11.53
2023-04-16T14:03:20.758Z,11.49
2023-04-16T14:08:23.782Z,11.54
2023-04-16T14:13:26.794Z,11.49
2023-04-16T14:18:29.779Z,11.51
2023-04-16T14:23:33.222Z,11.43
2023-04-16T14:28:36.707Z,11.47
2023-04-16T14:33:39.752Z,11.34
2023-04-16T14:38:47.442Z,11.28
2023-04-16T14:43:50.785Z,11.13
2023-04-16T14:48:53.865Z,11.03
2023-04-16T14:53:56.951Z,11.00
2023-04-16T14:58:59.954Z,10.84
2023-04-16T15:04:03.330Z,10.71
2023-04-16T15:09:07.760Z,10.61
2023-04-16T15:14:11.198Z,10.58
2023-04-16T15:19:14.504Z,10.45
2023-04-16T15:24:17.631Z,10.38
2023-04-16T15:29:20.668Z,10.23
2023-04-16T15:34:23.627Z,10.16
2023-04-16T15:39:26.982Z,10.11
2023-04-16T15:44:31.377Z,9.86
2023-04-16T15:49:34.592Z,9.78
2023-04-16T15:54:37.742Z,9.51
2023-04-16T15:59:40.818Z,9.45
2023-04-16T16:04:46.440Z,9.27
2023-04-16T16:09:49.495Z,9.19
2023-04-16T16:14:52.427Z,8.98
2023-04-16T16:19:57.860Z,8.88
2023-04-16T16:25:00.882Z,8.58
2023-04-16T16:30:08.061Z,8.44
2023-04-16T16:35:11.970Z,8.27
2023-04-16T16:40:15.174Z,8.03
2023-04-16T16:45:18.169Z,7.80
2023-04-16T16:50:21.161Z,7.67
2023-04-16T16:55:24.246Z,7.36
2023-04-16T17:00:27.822Z,7.16
2023-04-16T17:05:30.819Z,7.28
2023-04-16T17:10:33.832Z,7.12
2023-04-16T17:15:36.841Z,7.19
2023-04-16T17:20:39.992Z,7.15
2023-04-16T17:25:43.109Z,7.14
2023-04-16T17:30:46.463Z,7.18
2023-04-16T17:35:49.395Z,6.98
2023-04-16T17:40:57.236Z,6.72
2023-04-16T17:46:00.166Z,6.71
2023-04-16T17:51:10.698Z,6.82
2023-04-16T17:56:14.116Z,6.57
2023-04-16T18:01:17.177Z,6.57
2023-04-16T18:06:20.100Z,6.46
2023-04-16T18:11:23.181Z,6.35
2023-04-16T18:16:26.600Z,6.15
2023-04-16T18:21:48.113Z,5.96
2023-04-16T18:26:51.334Z,5.71
2023-04-16T18:31:55.437Z,5.78
2023-04-16T18:37:17.665Z,5.62
2023-04-16T18:42:21.226Z,5.55
2023-04-16T18:47:24.389Z,5.32
2023-04-16T18:52:28.163Z,5.43
2023-04-16T18:57:31.216Z,5.17
2023-04-16T19:02:34.246Z,5.20
2023-04-16T19:07:37.869Z,5.13
2023-04-16T19:12:59.807Z,4.91
2023-04-16T19:18:03.072Z,4.83
2023-04-16T19:23:24.608Z,4.88
2023-04-16T19:28:27.736Z,4.88
2023-04-16T19:33:31.674Z,4.77
2023-04-16T19:38:34.653Z,4.69
2023-04-16T19:43:37.660Z,4.62
2023-04-16T19:48:40.709Z,4.54
2023-04-16T19:54:02.655Z,4.50
2023-04-16T19:59:05.714Z,4.32
2023-04-16T20:04:27.360Z,4.31
2023-04-16T20:09:30.539Z,4.32
2023-04-16T20:14:33.596Z,4.25
2023-04-16T20:19:56.193Z,4.21
2023-04-16T20:25:19.664Z,4.18
2023-04-16T20:30:24.730Z,4.01
2023-04-16T20:35:27.733Z,4.04
2023-04-16T20:40:30.841Z,3.95
2023-04-16T20:45:38.326Z,3.94
2023-04-16T20:50:41.817Z,3.91
2023-04-16T20:55:44.817Z,3.76
2023-04-16T21:00:52.062Z,3.70
2023-04-16T21:05:55.829Z,3.76
2023-04-16T21:10:58.943Z,3.63
2023-04-16T21:16:02.071Z,3.66
2023-04-16T21:21:05.162Z,3.57
2023-04-16T21:26:08.116Z,3.53
2023-04-16T21:31:11.377Z,3.59
2023-04-16T21:36:14.428Z,3.40
2023-04-16T21:41:17.397Z,3.31
2023-04-16T21:46:21.109Z,3.46
2023-04-16T21:51:29.594Z,3.32
2023-04-16T21:56:32.612Z,3.23
2023-04-16T22:01:35.697Z,3.06
2023-04-16T22:06:38.673Z,3.01
2023-04-16T22:11:41.748Z,3.13
2023-04-16T22:16:50.145Z,2.91
2023-04-16T22:21:53.370Z,2.87
2023-04-16T22:26:57.288Z,2.95
2023-04-16T22:32:01.058Z,2.93
2023-04-16T22:37:04.165Z,2.83
2023-04-16T22:42:07.663Z,2.88
2023-04-16T22:47:10.685Z,2.84
2023-04-16T22:52:13.703Z,2.67
2023-04-16T22:57:21.317Z,2.68
2023-04-16T23:02:24.408Z,2.71
2023-04-16T23:07:27.413Z,2.73
2023-04-16T23:12:30.427Z,2.71
2023-04-16T23:17:34.219Z,2.52
2023-04-16T23:22:37.208Z,2.58
2023-04-16T23:27:40.149Z,2.50
2023-04-16T23:32:43.153Z,2.57
2023-04-16T23:37:46.991Z,2.59
2023-04-16T23:42:49.960Z,2.70
2023-04-16T23:47:52.886Z,2.69
2023-04-16T23:52:55.941Z,2.62
2023-04-16T23:57:58.860Z,2.53
